Time;durP1;ratioP1;P1;durP2;ratioP2;P2;SDS_P1;SDS_P2;PMS_P1;PMS_P2;Temp;Humidity;BMP_temperature;BMP_pressure;BME280_temperature;BME280_humidity;BME280_pressure;Samples;Min_cycle;Max_cycle;Signal;HPM_P1;HPM_P2
2023/05/02 00:01:35;;;;;;;3.12;1.50;;;;;;;18.41;34.13;99609.97;4487892;31;34950;-64
2023/05/02 00:04:03;;;;;;;2.47;1.62;;;;;;;18.41;34.65;99610.81;4497113;31;33350;-63
2023/05/02 00:06:31;;;;;;;3.60;1.27;;;;;;;18.45;34.52;99608.59;4498222;31;33833;-61
2023/05/02 00:08:58;;;;;;;3.28;1.62;;;;;;;18.57;34.26;99612.69;4496561;31;33593;-61
2023/05/02 00:11:26;;;;;;;3.70;1.80;;;;;;;18.32;34.40;99615.34;4489092;31;33825;-62
2023/05/02 00:13:54;;;;;;;9.57;1.20;;;;;;;18.54;33.70;99604.87;4483517;31;33401;-62
2023/05/02 00:16:21;;;;;;;2.12;0.98;;;;;;;18.61;33.74;99605.88;4494084;31;34662;-62
2023/05/02 00:18:49;;;;;;;3.17;1.70;;;;;;;18.73;33.62;99601.84;4485743;31;33778;-61
2023/05/02 00:21:16;;;;;;;3.95;1.52;;;;;;;18.31;35.40;99612.84;4492818;31;34937;-62
2023/05/02 00:23:44;;;;;;;1.80;1.17;;;;;;;18.53;33.78;99601.31;4494287;31;33610;-62
2023/05/02 00:26:11;;;;;;;1.73;1.27;;;;;;;18.42;34.25;99607.06;4496895;31;34224;-61
2023/05/02 00:28:40;;;;;;;2.40;1.45;;;;;;;18.67;34.10;99602.50;4496988;31;32802;-61
2023/05/02 00:31:08;;;;;;;3.65;1.12;;;;;;;18.64;34.88;99600.13;4486811;31;34192;-61
2023/05/02 00:33:36;;;;;;;5.32;0.93;;;;;;;18.67;35.19;99607.06;4495626;31;32309;-61
2023/05/02 00:36:03;;;;;;;2.15;1.05;;;;;;;18.67;35.19;99616.06;4485602;31;33533;-62
2023/05/02 00:38:30;;;;;;;1.75;1.02;;;;;;;18.50;35.85;99611.66;4491599;31;34021;-61
2023/05/02 00:40:59;;;;;;;1.60;1.20;;;;;;;18.35;36.47;99609.59;4490820;31;35306;-62
2023/05/02 00:43:29;;;;;;;1.65;1.08;;;;;;;18.34;36.46;99612.50;4493677;31;33450;-61
2023/05/02 00:45:57;;;;;;;2.42;1.48;;;;;;;18.23;35.57;99607.38;4481381;31;33161;-61
2023/05/02 00:48:25;;;;;;;2.37;1.55;;;;;;;18.32;35.83;99614.50;4478796;32;34727;-61
2023/05/02 00:50:53;;;;;;;2.40;1.08;;;;;;;18.23;35.46;99610.09;4489953;31;33057;-61
2023/05/02 00:53:20;;;;;;;5.32;1.60;;;;;;;18.12;36.03;99605.84;4484950;31;33552;-61
2023/05/02 00:55:48;;;;;;;2.85;1.48;;;;;;;18.23;35.33;99608.22;4480481;31;33740;-61
2023/05/02 00:58:17;;;;;;;2.05;1.02;;;;;;;18.22;35.91;99613.84;4491583;31;33964;-61
2023/05/02 01:01:01;;;;;;;3.35;1.23;;;;;;;18.16;35.39;99612.63;4486333;31;32464;-63
2023/05/02 01:03:39;;;;;;;1.52;1.08;;;;;;;18.19;35.28;99616.88;4488633;31;33141;-63
2023/05/02 01:06:07;;;;;;;1.95;1.23;;;;;;;18.26;35.10;99610.59;4497325;31;33706;-65
2023/05/02 01:09:00;;;;;;;1.50;0.70;;;;;;;18.31;34.93;99608.25;4484278;31;34009;-63
2023/05/02 01:11:39;;;;;;;3.55;1.77;;;;;;;18.07;35.86;99608.19;4485240;31;33560;-61
2023/05/02 01:14:10;;;;;;;1.92;1.40;;;;;;;18.24;35.21;99609.94;4490370;31;33403;-63
2023/05/02 01:16:40;;;;;;;1.85;1.15;;;;;;;18.21;35.42;99610.28;4488609;31;32919;-62
2023/05/02 01:19:12;;;;;;;2.80;1.58;;;;;;;17.68;34.75;99608.75;4490285;31;34181;-63
2023/05/02 01:21:40;;;;;;;3.92;1.33;;;;;;;18.18;34.18;99605.19;4489102;31;34927;-61
2023/05/02 01:24:18;;;;;;;1.48;1.00;;;;;;;17.69;34.51;99599.63;4493298;31;33648;-64
2023/05/02 01:27:06;;;;;;;1.92;0.93;;;;;;;18.21;33.40;99612.16;4493569;31;35031;-64
2023/05/02 01:29:35;;;;;;;1.37;1.02;;;;;;;18.33;33.12;99598.09;4484637;31;33953;-65
2023/05/02 01:32:03;;;;;;;1.73;1.30;;;;;;;18.35;33.11;99609.59;4488692;31;34147;-65
2023/05/02 01:34:32;;;;;;;2.42;1.20;;;;;;;18.35;33.00;99600.62;4481696;31;34619;-63
2023/05/02 01:37:00;;;;;;;2.17;1.12;;;;;;;18.54;32.61;99594.03;4481365;31;32601;-63
2023/05/02 01:39:28;;;;;;;2.35;0.85;;;;;;;18.51;32.63;99592.50;4482155;31;33844;-65
2023/05/02 01:41:56;;;;;;;1.27;0.73;;;;;;;18.56;32.48;99592.03;4486866;31;33941;-63
2023/05/02 01:44:26;;;;;;;2.75;1.37;;;;;;;18.71;32.25;99597.59;4481345;31;33795;-64
2023/05/02 01:46:54;;;;;;;1.27;0.77;;;;;;;18.72;32.53;99594.75;4487423;31;32193;-64
2023/05/02 01:49:23;;;;;;;1.35;1.02;;;;;;;18.59;32.31;99583.53;4493656;31;33815;-65
2023/05/02 01:51:51;;;;;;;2.60;1.17;;;;;;;18.69;32.27;99589.63;4496513;31;34810;-64
2023/05/02 01:54:20;;;;;;;2.78;1.58;;;;;;;18.66;32.51;99595.41;4490460;31;32483;-63
2023/05/02 01:56:48;;;;;;;2.25;1.10;;;;;;;18.48;32.45;99592.00;4480143;31;33590;-63
2023/05/02 01:59:19;;;;;;;5.60;1.10;;;;;;;18.57;32.33;99578.28;4487476;31;34432;-63
2023/05/02 02:01:47;;;;;;;1.00;0.77;;;;;;;18.66;32.46;99589.97;4493991;31;34923;-63
2023/05/02 02:04:15;;;;;;;5.60;1.17;;;;;;;18.41;32.67;99586.41;4492875;31;33396;-63
2023/05/02 02:06:45;;;;;;;1.55;1.12;;;;;;;18.35;33.11;99584.38;4487971;31;34762;-64
2023/05/02 02:09:13;;;;;;;2.92;1.17;;;;;;;18.50;32.74;99579.16;4496306;31;34578;-63
2023/05/02 02:12:10;;;;;;;4.07;1.35;;;;;;;18.52;32.55;99571.66;4482184;31;35229;-63
2023/05/02 02:14:41;;;;;;;4.55;1.75;;;;;;;18.32;32.80;99576.59;4490313;31;33472;-65
2023/05/02 02:17:15;;;;;;;1.75;1.05;;;;;;;18.45;32.61;99574.22;4496324;31;34597;-63
2023/05/02 02:19:43;;;;;;;2.67;1.50;;;;;;;18.41;32.83;99575.56;4493898;31;34063;-61
2023/05/02 02:22:12;;;;;;;1.48;1.15;;;;;;;18.39;32.91;99570.34;4486384;31;33948;-61
2023/05/02 02:24:40;;;;;;;1.75;0.90;;;;;;;18.46;32.83;99562.38;4487541;31;34735;-60
2023/05/02 02:27:08;;;;;;;1.95;1.15;;;;;;;18.14;34.06;99569.47;4484205;31;33704;-63
2023/05/02 02:29:35;;;;;;;1.95;0.77;;;;;;;18.20;33.43;99567.09;4491685;31;34044;-63
2023/05/02 02:32:02;;;;;;;1.02;0.82;;;;;;;18.41;33.17;99566.59;4495877;31;34705;-62
2023/05/02 02:34:30;;;;;;;2.17;0.98;;;;;;;18.18;33.58;99572.69;4485932;31;34367;-63
2023/05/02 02:37:08;;;;;;;2.08;1.12;;;;;;;18.34;33.29;99569.16;4486674;31;34785;-62
2023/05/02 02:40:13;;;;;;;5.82;1.37;;;;;;;18.29;33.50;99572.34;4484864;31;33993;-62
2023/05/02 02:42:54;;;;;;;3.10;1.57;;;;;;;18.24;33.71;99571.19;4496873;31;33767;-61
2023/05/02 02:45:34;;;;;;;2.22;1.30;;;;;;;18.18;33.94;99569.97;4486568;31;31662;-61
2023/05/02 02:48:27;;;;;;;1.55;1.10;;;;;;;18.43;33.64;99570.84;4489375;31;32739;-61
2023/05/02 02:51:21;;;;;;;1.45;1.08;;;;;;;18.48;33.55;99570.31;4480416;31;33823;-62
2023/05/02 02:54:10;;;;;;;1.92;1.27;;;;;;;18.33;33.96;99570.12;4481791;31;34266;-60
2023/05/02 02:57:01;;;;;;;4.12;1.42;;;;;;;18.45;33.93;99571.50;4481892;31;33200;-62
2023/05/02 02:59:33;;;;;;;2.17;1.17;;;;;;;18.26;34.38;99574.53;4487285;31;33651;-61
2023/05/02 03:02:05;;;;;;;1.55;1.00;;;;;;;18.39;34.61;99564.91;4497260;31;34131;-61
2023/05/02 03:04:42;;;;;;;3.47;1.25;;;;;;;18.38;34.56;99574.03;4492824;31;34004;-62
2023/05/02 03:07:10;;;;;;;1.35;0.95;;;;;;;18.02;35.08;99570.81;4481645;31;34596;-62
2023/05/02 03:09:42;;;;;;;6.07;1.33;;;;;;;18.31;34.78;99574.91;4484430;31;34053;-63
2023/05/02 03:12:11;;;;;;;1.73;0.88;;;;;;;18.36;34.93;99576.09;4491750;31;33854;-62
2023/05/02 03:14:39;;;;;;;3.22;2.10;;;;;;;18.30;35.00;99576.78;4497568;31;34388;-63
2023/05/02 03:17:07;;;;;;;3.90;1.60;;;;;;;18.36;35.15;99578.81;4483405;31;33625;-62
2023/05/02 03:19:36;;;;;;;2.30;1.20;;;;;;;18.12;35.60;99585.03;4488029;31;35482;-62
2023/05/02 03:22:04;;;;;;;1.35;0.85;;;;;;;18.20;35.86;99586.06;4496385;31;32817;-63
2023/05/02 03:24:32;;;;;;;2.42;1.23;;;;;;;18.35;35.49;99587.09;4488367;31;34306;-62
2023/05/02 03:27:00;;;;;;;1.75;1.08;;;;;;;18.30;35.65;99582.19;4498193;31;33313;-66
2023/05/02 03:29:28;;;;;;;2.85;1.02;;;;;;;18.13;36.14;99585.88;4486778;31;33835;-62
2023/05/02 03:31:56;;;;;;;2.65;1.52;;;;;;;18.18;36.19;99586.22;4491509;31;34011;-62
2023/05/02 03:34:24;;;;;;;2.75;1.20;;;;;;;18.37;36.06;99585.91;4483744;31;33802;-62
2023/05/02 03:36:52;;;;;;;3.20;1.95;;;;;;;18.20;36.11;99580.63;4498423;31;33375;-61
2023/05/02 03:39:19;;;;;;;2.72;1.50;;;;;;;18.19;36.34;99592.50;4498083;31;31697;-61
2023/05/02 03:41:47;;;;;;;3.85;1.65;;;;;;;18.31;36.26;99586.59;4494327;31;35228;-61
2023/05/02 03:44:15;;;;;;;3.65;2.22;;;;;;;18.33;36.17;99584.56;4494298;31;33972;-62
2023/05/02 03:46:43;;;;;;;2.65;1.30;;;;;;;18.13;36.61;99594.00;4491982;31;34724;-63
2023/05/02 03:49:11;;;;;;;2.12;0.95;;;;;;;18.14;36.56;99593.84;4494720;31;34786;-63
2023/05/02 03:51:40;;;;;;;3.72;1.77;;;;;;;18.30;36.37;99590.31;4488059;31;32437;-63
2023/05/02 03:54:08;;;;;;;1.65;1.42;;;;;;;18.32;36.32;99592.84;4487637;31;33788;-64
2023/05/02 03:56:38;;;;;;;3.97;2.15;;;;;;;18.29;36.36;99588.59;4487966;31;33136;-64
2023/05/02 03:59:10;;;;;;;2.05;1.12;;;;;;;18.10;36.78;99595.19;4489375;31;34203;-64
2023/05/02 04:01:38;;;;;;;3.17;1.67;;;;;;;18.16;36.82;99599.09;4487184;31;33992;-63
2023/05/02 04:04:07;;;;;;;1.50;1.12;;;;;;;18.26;36.64;99596.22;4491572;31;34407;-64
2023/05/02 04:06:35;;;;;;;8.35;2.25;;;;;;;18.33;36.83;99597.22;4491913;31;33473;-64
2023/05/02 04:09:03;;;;;;;1.52;1.05;;;;;;;18.31;36.78;99602.00;4488428;31;33744;-65
2023/05/02 04:11:31;;;;;;;2.17;1.25;;;;;;;18.31;36.81;99602.84;4494411;31;34694;-65
2023/05/02 04:13:59;;;;;;;3.67;1.65;;;;;;;18.29;36.96;99607.56;4487615;31;33936;-65
2023/05/02 04:16:26;;;;;;;5.35;1.50;;;;;;;18.28;37.07;99600.47;4492997;31;33623;-64
2023/05/02 04:18:54;;;;;;;2.85;1.60;;;;;;;18.21;37.33;99612.16;4486059;31;34254;-64
2023/05/02 04:21:22;;;;;;;3.95;1.73;;;;;;;18.34;37.18;99610.63;4483196;31;93839;-62
2023/05/02 04:23:50;;;;;;;6.70;1.52;;;;;;;18.36;37.24;99610.44;4494066;31;35183;-63
2023/05/02 04:26:18;;;;;;;2.87;1.67;;;;;;;18.35;37.31;99608.75;4495863;31;33800;-65
2023/05/02 04:28:46;;;;;;;3.03;1.77;;;;;;;18.33;37.30;99614.38;4493062;31;34455;-64
2023/05/02 04:31:14;;;;;;;4.00;2.25;;;;;;;17.98;38.20;99615.47;4495001;31;34133;-65
2023/05/02 04:33:43;;;;;;;3.85;1.77;;;;;;;18.47;37.39;99612.84;4495067;31;35117;-64
2023/05/02 04:36:11;;;;;;;1.85;1.45;;;;;;;18.43;37.63;99616.91;4489552;31;32681;-65
2023/05/02 04:38:39;;;;;;;3.17;1.73;;;;;;;18.19;37.93;99620.44;4489549;31;32788;-63
2023/05/02 04:41:07;;;;;;;5.40;2.97;;;;;;;18.02;38.37;99618.72;4492946;31;34431;-64
2023/05/02 04:43:37;;;;;;;4.28;1.27;;;;;;;18.36;37.93;99624.88;4493889;31;33961;-64
2023/05/02 04:46:05;;;;;;;5.25;1.60;;;;;;;18.33;38.28;99627.03;4492736;31;33483;-63
2023/05/02 04:48:33;;;;;;;2.65;1.55;;;;;;;18.58;37.79;99630.63;4490438;31;34110;-62
2023/05/02 04:51:00;;;;;;;4.93;2.10;;;;;;;18.37;38.04;99625.72;4495532;31;33971;-62
2023/05/02 04:53:28;;;;;;;11.48;1.85;;;;;;;18.20;38.28;99626.69;4494490;31;33943;-62
2023/05/02 04:55:56;;;;;;;4.10;2.65;;;;;;;18.42;38.30;99623.31;4493119;31;34501;-62
2023/05/02 04:58:24;;;;;;;5.53;1.52;;;;;;;18.36;38.79;99640.25;4490905;31;34778;-61
2023/05/02 05:00:53;;;;;;;4.60;1.73;;;;;;;18.50;38.45;99628.75;4489074;31;35268;-62
2023/05/02 05:03:21;;;;;;;3.47;2.47;;;;;;;18.45;38.49;99639.25;4497069;31;34041;-62
2023/05/02 05:05:48;;;;;;;8.63;2.50;;;;;;;18.58;38.27;99627.91;4494438;31;34253;-62
2023/05/02 05:08:17;;;;;;;6.45;1.85;;;;;;;18.70;38.24;99634.69;4496081;31;34633;-62
2023/05/02 05:10:45;;;;;;;3.65;2.03;;;;;;;18.48;38.55;99635.37;4494012;31;33488;-63
2023/05/02 05:13:12;;;;;;;4.05;2.08;;;;;;;18.73;38.26;99638.97;4494515;31;32924;-63
2023/05/02 05:15:41;;;;;;;3.47;1.67;;;;;;;18.90;38.14;99639.81;4488040;31;35024;-63
2023/05/02 05:18:09;;;;;;;4.43;1.80;;;;;;;18.81;38.67;99637.09;4493930;31;35212;-62
2023/05/02 05:20:37;;;;;;;3.05;1.92;;;;;;;18.73;39.00;99641.69;4489123;31;34772;-62
2023/05/02 05:23:05;;;;;;;6.65;2.00;;;;;;;19.04;38.51;99639.12;4489871;31;33892;-63
2023/05/02 05:25:33;;;;;;;5.03;1.85;;;;;;;19.14;38.23;99644.38;4496702;31;33530;-63
2023/05/02 05:28:01;;;;;;;3.72;1.77;;;;;;;19.31;37.83;99641.41;4492549;31;34989;-62
2023/05/02 05:30:30;;;;;;;4.32;2.40;;;;;;;19.42;36.98;99645.66;4484816;31;34018;-63
2023/05/02 05:32:58;;;;;;;5.47;2.20;;;;;;;19.46;37.32;99648.88;4492888;31;34031;-62
2023/05/02 05:35:25;;;;;;;5.25;2.15;;;;;;;19.29;37.96;99646.19;4487229;31;33274;-63
2023/05/02 05:37:54;;;;;;;11.77;1.70;;;;;;;19.17;38.05;99642.16;4489048;31;34053;-63
2023/05/02 05:40:22;;;;;;;3.92;1.75;;;;;;;19.29;37.71;99654.34;4487404;31;33743;-63
2023/05/02 05:42:50;;;;;;;6.43;1.95;;;;;;;19.14;38.18;99663.34;4494559;31;35268;-63
2023/05/02 05:45:18;;;;;;;3.28;2.12;;;;;;;18.90;38.62;99654.19;4489083;31;33853;-62
2023/05/02 05:47:46;;;;;;;5.25;1.67;;;;;;;19.30;38.02;99660.59;4497388;31;33826;-62
2023/05/02 05:50:14;;;;;;;3.97;2.30;;;;;;;19.47;37.89;99664.13;4493452;31;35247;-63
2023/05/02 05:52:43;;;;;;;10.55;2.65;;;;;;;18.99;39.23;99663.19;4498447;31;34747;-63
2023/05/02 05:55:10;;;;;;;3.58;1.90;;;;;;;19.31;38.01;99662.28;4496306;31;34252;-63
2023/05/02 05:57:38;;;;;;;5.47;2.83;;;;;;;19.29;38.44;99670.63;4493663;31;33586;-62
2023/05/02 06:00:07;;;;;;;3.70;2.20;;;;;;;19.01;38.71;99672.00;4489117;31;33886;-63
2023/05/02 06:02:41;;;;;;;4.12;1.70;;;;;;;18.77;39.08;99673.69;4494334;31;34505;-62
2023/05/02 06:05:10;;;;;;;4.50;2.37;;;;;;;19.39;38.29;99674.97;4485614;31;34566;-63
2023/05/02 06:07:38;;;;;;;4.30;2.62;;;;;;;17.97;40.26;99667.94;4482938;31;33567;-63
2023/05/02 06:10:06;;;;;;;5.03;2.37;;;;;;;19.43;38.17;99674.47;4496951;31;32335;-63
2023/05/02 06:12:34;;;;;;;22.50;2.12;;;;;;;19.48;38.23;99666.63;4497341;31;35067;-63
2023/05/02 06:15:02;;;;;;;3.78;2.30;;;;;;;19.44;38.39;99687.03;4487406;31;33575;-63
2023/05/02 06:17:30;;;;;;;4.72;2.12;;;;;;;19.00;38.89;99662.16;4487187;31;33444;-63
2023/05/02 06:19:57;;;;;;;8.93;2.62;;;;;;;19.36;38.22;99673.47;4497120;31;35162;-61
2023/05/02 06:22:26;;;;;;;9.80;2.67;;;;;;;19.22;38.32;99666.88;4495240;31;32890;-64
2023/05/02 06:24:53;;;;;;;3.30;2.45;;;;;;;19.00;39.03;99676.56;4488522;31;33614;-63
2023/05/02 06:27:21;;;;;;;5.43;2.42;;;;;;;19.27;38.60;99686.22;4496448;31;33483;-64
2023/05/02 06:29:52;;;;;;;6.45;2.50;;;;;;;19.37;38.52;99667.03;4495641;31;34145;-62
2023/05/02 06:32:20;;;;;;;2.95;1.85;;;;;;;19.60;38.14;99669.84;4486390;31;32392;-62
2023/05/02 06:34:48;;;;;;;4.20;2.62;;;;;;;19.29;38.03;99678.75;4491706;31;34754;-64
2023/05/02 06:37:15;;;;;;;4.70;2.67;;;;;;;18.73;39.49;99685.06;4484791;31;33862;-64
2023/05/02 06:39:42;;;;;;;9.52;2.08;;;;;;;18.95;39.38;99689.81;4497840;31;33840;-64
2023/05/02 06:42:10;;;;;;;4.35;2.00;;;;;;;19.08;38.94;99681.16;4487778;31;33647;-64
2023/05/02 06:44:37;;;;;;;5.87;2.25;;;;;;;19.75;37.84;99680.87;4488137;31;33456;-65
2023/05/02 06:47:06;;;;;;;4.85;2.20;;;;;;;19.78;37.42;99685.94;4497267;31;34117;-64
2023/05/02 06:49:34;;;;;;;8.38;2.58;;;;;;;18.83;39.30;99681.16;4492113;31;34069;-63
2023/05/02 06:52:01;;;;;;;2.97;1.92;;;;;;;19.26;38.92;99684.53;4491381;31;34057;-65
2023/05/02 06:54:29;;;;;;;18.15;2.40;;;;;;;19.50;38.95;99686.31;4487162;31;36493;-64
2023/05/02 06:56:56;;;;;;;5.28;2.45;;;;;;;19.98;37.85;99679.06;4493469;31;33822;-65
2023/05/02 06:59:24;;;;;;;3.50;1.95;;;;;;;20.18;37.86;99679.47;4485705;31;32678;-63
2023/05/02 07:01:51;;;;;;;5.78;1.85;;;;;;;19.87;37.97;99676.75;4488022;31;34032;-64
2023/05/02 07:04:19;;;;;;;4.28;2.58;;;;;;;20.33;37.57;99687.72;4488454;31;34300;-63
2023/05/02 07:06:47;;;;;;;4.22;1.83;;;;;;;19.55;38.70;99677.69;4483019;31;33645;-64
2023/05/02 07:09:15;;;;;;;6.05;2.08;;;;;;;19.95;37.71;99687.56;4483539;32;34877;-62
2023/05/02 07:11:43;;;;;;;11.60;2.42;;;;;;;19.90;38.48;99680.97;4487604;31;34961;-63
2023/05/02 07:14:10;;;;;;;3.47;1.77;;;;;;;19.34;38.71;99688.25;4496583;31;33286;-63
2023/05/02 07:16:38;;;;;;;4.47;2.15;;;;;;;20.16;37.52;99676.09;4486549;31;34732;-64
2023/05/02 07:19:06;;;;;;;6.43;2.42;;;;;;;19.83;38.99;99685.41;4498485;31;33055;-63
2023/05/02 07:21:33;;;;;;;3.30;1.85;;;;;;;20.46;38.07;99684.41;4491235;31;33789;-63
2023/05/02 07:24:01;;;;;;;5.22;1.67;;;;;;;20.40;37.66;99682.41;4499312;31;34446;-63
2023/05/02 07:26:29;;;;;;;8.70;2.22;;;;;;;20.98;37.58;99680.97;4489118;31;33501;-63
2023/05/02 07:28:56;;;;;;;3.20;2.03;;;;;;;20.99;37.05;99689.97;4495636;31;34276;-63
2023/05/02 07:31:23;;;;;;;5.18;2.22;;;;;;;21.36;37.27;99686.44;4493203;31;33753;-64
2023/05/02 07:33:51;;;;;;;3.25;2.25;;;;;;;20.88;36.28;99685.81;4491992;31;33402;-64
2023/05/02 07:36:19;;;;;;;5.37;2.42;;;;;;;21.50;35.56;99691.03;4486863;31;33832;-64
2023/05/02 07:38:46;;;;;;;7.43;3.67;;;;;;;21.32;35.93;99693.25;4482582;31;35012;-65
2023/05/02 07:41:14;;;;;;;6.12;2.53;;;;;;;21.09;36.12;99687.84;4497782;31;33860;-65
2023/05/02 07:43:41;;;;;;;3.45;1.90;;;;;;;21.58;35.74;99682.78;4498476;31;34569;-63
2023/05/02 07:46:09;;;;;;;4.20;2.67;;;;;;;21.00;36.47;99692.53;4492162;31;35080;-64
2023/05/02 07:48:37;;;;;;;5.68;2.22;;;;;;;21.07;36.23;99695.34;4487313;31;34027;-63
2023/05/02 07:51:08;;;;;;;6.05;2.90;;;;;;;21.31;35.72;99689.66;4484428;31;33774;-65
2023/05/02 07:53:36;;;;;;;2.80;1.95;;;;;;;21.06;36.92;99690.94;4490449;31;32389;-62
2023/05/02 07:56:07;;;;;;;4.57;2.03;;;;;;;21.23;36.96;99686.19;4497600;31;33666;-64
2023/05/02 07:58:38;;;;;;;6.00;2.00;;;;;;;21.91;35.70;99685.12;4490207;31;35089;-63
2023/05/02 08:01:05;;;;;;;4.68;2.10;;;;;;;21.91;35.83;99687.00;4490709;31;34198;-63
2023/05/02 08:03:33;;;;;;;5.93;2.22;;;;;;;21.56;36.69;99689.44;4498100;31;33061;-63
2023/05/02 08:06:01;;;;;;;4.95;2.58;;;;;;;21.62;36.52;99689.53;4496248;31;34102;-64
2023/05/02 08:08:28;;;;;;;3.40;2.03;;;;;;;21.66;35.67;99689.19;4491988;31;33961;-63
2023/05/02 08:10:56;;;;;;;3.85;2.42;;;;;;;21.84;35.32;99682.31;4486914;31;33882;-65
2023/05/02 08:13:24;;;;;;;6.85;3.17;;;;;;;21.73;35.30;99687.38;4487739;31;34414;-64
2023/05/02 08:15:56;;;;;;;3.65;2.05;;;;;;;21.25;36.28;99687.72;4489635;31;34925;-63
2023/05/02 08:18:24;;;;;;;4.20;2.03;;;;;;;20.69;36.50;99690.72;4493852;31;35165;-63
2023/05/02 08:20:54;;;;;;;5.10;2.12;;;;;;;21.11;35.43;99718.44;4486091;31;34016;-64
2023/05/02 08:23:22;;;;;;;5.80;2.58;;;;;;;21.77;35.24;99702.34;4487475;31;34622;-63
2023/05/02 08:25:49;;;;;;;8.18;2.85;;;;;;;21.58;34.62;99701.00;4482208;31;32653;-65
2023/05/02 08:28:17;;;;;;;5.20;2.78;;;;;;;21.65;34.91;99707.41;4490757;31;34337;-64
2023/05/02 08:30:44;;;;;;;5.47;2.85;;;;;;;22.22;34.30;99695.00;4498511;31;33790;-62
2023/05/02 08:33:12;;;;;;;7.32;2.53;;;;;;;22.40;33.84;99692.66;4490964;31;33643;-64
2023/05/02 08:35:40;;;;;;;4.05;2.70;;;;;;;22.39;34.12;99690.16;4483143;32;33815;-63
2023/05/02 08:38:07;;;;;;;4.45;2.15;;;;;;;22.85;33.42;99681.59;4492128;31;33750;-63
2023/05/02 08:40:36;;;;;;;3.80;1.98;;;;;;;22.60;33.64;99682.00;4483665;31;34077;-68
2023/05/02 08:43:10;;;;;;;20.48;3.65;;;;;;;22.45;33.53;99678.47;4493121;31;34305;-64
2023/05/02 08:45:40;;;;;;;3.80;1.87;;;;;;;22.15;34.37;99680.37;4483025;32;33603;-63
2023/05/02 08:48:10;;;;;;;5.93;2.33;;;;;;;22.44;34.09;99677.62;4487184;31;32896;-65
2023/05/02 08:50:40;;;;;;;3.90;2.22;;;;;;;22.17;34.44;99681.06;4497308;31;33875;-65
2023/05/02 08:53:09;;;;;;;4.68;2.00;;;;;;;22.49;34.04;99675.16;4491030;31;33830;-64
2023/05/02 08:55:39;;;;;;;5.70;2.55;;;;;;;22.69;34.34;99671.78;4496405;31;34901;-63
2023/05/02 08:58:10;;;;;;;5.07;2.95;;;;;;;22.97;34.19;99666.41;4495422;31;33682;-65
2023/05/02 09:00:41;;;;;;;6.40;3.35;;;;;;;23.00;34.09;99675.03;4491449;31;33934;-63
2023/05/02 09:03:47;;;;;;;5.20;2.35;;;;;;;23.14;33.72;99672.41;4493386;31;33162;-63
2023/05/02 09:06:17;;;;;;;9.05;3.70;;;;;;;23.39;34.04;99670.09;4422031;32;34825;-63
2023/05/02 09:08:48;;;;;;;5.35;2.95;;;;;;;22.96;33.65;99664.72;4421608;32;33961;-65
2023/05/02 09:11:16;;;;;;;4.57;2.35;;;;;;;22.62;34.71;99665.41;4456009;31;34140;-66
2023/05/02 09:13:48;;;;;;;6.12;2.92;;;;;;;22.75;34.09;99668.28;4490489;31;33119;-63
2023/05/02 09:16:18;;;;;;;5.93;2.37;;;;;;;22.47;34.54;99660.00;4496254;31;33679;-64
2023/05/02 09:18:51;;;;;;;8.27;3.72;;;;;;;23.00;34.08;99663.28;4487609;31;33301;-64
2023/05/02 09:21:26;;;;;;;4.72;2.75;;;;;;;23.20;33.82;99650.63;4495907;31;34103;-65
2023/05/02 09:23:56;;;;;;;13.23;2.47;;;;;;;23.59;32.75;99654.66;4490005;31;33233;-63
2023/05/02 09:26:28;;;;;;;4.60;2.35;;;;;;;23.34;32.74;99659.78;4487688;31;34938;-65
2023/05/02 09:29:00;;;;;;;5.35;2.72;;;;;;;22.92;33.28;99661.53;4491309;31;32682;-64
2023/05/02 09:31:32;;;;;;;5.95;2.85;;;;;;;23.40;32.91;99667.19;4493480;31;34871;-64
2023/05/02 09:34:20;;;;;;;6.22;2.40;;;;;;;23.52;32.58;99653.78;4492922;31;32492;-63
2023/05/02 09:36:50;;;;;;;4.15;2.30;;;;;;;23.88;31.49;99650.87;4494312;31;35074;-63
2023/05/02 09:39:23;;;;;;;7.15;2.72;;;;;;;23.78;32.11;99658.59;4498038;31;33675;-63
2023/05/02 09:41:52;;;;;;;4.22;2.15;;;;;;;23.61;32.20;99673.59;4491281;31;34837;-64
2023/05/02 09:44:23;;;;;;;6.15;2.87;;;;;;;23.14;32.29;99670.53;4493898;31;34422;-62
2023/05/02 09:46:56;;;;;;;5.50;2.42;;;;;;;23.13;32.38;99668.84;4491381;31;36048;-63
2023/05/02 09:49:38;;;;;;;6.22;2.60;;;;;;;23.37;32.63;99661.25;4491246;31;32743;-64
2023/05/02 09:52:13;;;;;;;6.43;3.12;;;;;;;23.90;31.50;99664.31;4498325;31;35228;-64
2023/05/02 09:54:41;;;;;;;;;;;;;;;24.02;31.53;99659.13;4494715;31;32354;-65
2023/05/02 09:57:09;;;;;;;4.70;2.78;;;;;;;24.00;31.67;99655.75;4486079;31;34320;-63
2023/05/02 09:59:41;;;;;;;5.03;2.12;;;;;;;24.27;30.96;99652.06;4484159;31;34169;-64
2023/05/02 10:02:10;;;;;;;4.10;2.05;;;;;;;23.76;32.00;99657.97;4493611;31;35579;-66
2023/05/02 10:04:39;;;;;;;4.65;2.65;;;;;;;23.47;30.93;99662.59;4486886;31;34352;-64
2023/05/02 10:07:09;;;;;;;4.07;2.30;;;;;;;23.85;30.87;99675.88;4488414;31;34656;-63
2023/05/02 10:09:42;;;;;;;3.67;2.05;;;;;;;24.01;30.66;99661.00;4490819;31;33519;-64
2023/05/02 10:12:13;;;;;;;7.72;2.83;;;;;;;23.41;31.26;99666.13;4495783;31;32335;-64
2023/05/02 10:14:48;;;;;;;4.45;2.45;;;;;;;24.03;30.78;99667.13;4494654;31;33415;-65
2023/05/02 10:17:28;;;;;;;4.65;2.40;;;;;;;24.75;29.88;99662.94;4494157;31;34898;-63
2023/05/02 10:20:00;;;;;;;5.95;2.42;;;;;;;24.52;30.02;99657.81;4489657;31;33678;-64
2023/05/02 10:22:28;;;;;;;9.45;2.20;;;;;;;24.93;29.37;99650.50;4495875;31;34307;-66
2023/05/02 10:24:56;;;;;;;4.80;2.45;;;;;;;24.26;30.43;99644.06;4495390;31;33329;-66
2023/05/02 10:27:24;;;;;;;4.25;2.25;;;;;;;24.54;30.24;99663.09;4492123;31;33708;-64
2023/05/02 10:29:53;;;;;;;4.25;2.53;;;;;;;24.89;29.76;99658.31;4494542;31;35551;-62
2023/05/02 10:32:22;;;;;;;8.73;3.25;;;;;;;25.27;29.10;99647.59;4487347;31;33654;-67
2023/05/02 10:34:50;;;;;;;5.75;2.55;;;;;;;24.75;30.61;99659.31;4487441;31;33311;-66
2023/05/02 10:37:18;;;;;;;6.80;2.53;;;;;;;25.09;29.89;99656.41;4496600;31;33453;-66
2023/05/02 10:39:46;;;;;;;4.03;2.17;;;;;;;25.41;29.50;99650.28;4496292;31;35093;-64
2023/05/02 10:42:13;;;;;;;4.12;2.40;;;;;;;25.65;29.36;99646.88;4494490;31;35138;-64
2023/05/02 10:44:41;;;;;;;5.55;2.40;;;;;;;26.12;29.01;99650.31;4488496;31;33812;-63
2023/05/02 10:47:27;;;;;;;6.87;2.60;;;;;;;24.98;29.68;99659.78;4493410;31;33497;-66
2023/05/02 10:49:57;;;;;;;12.75;2.85;;;;;;;24.67;30.10;99659.53;4486837;31;34893;-64
2023/05/02 10:52:29;;;;;;;4.90;2.35;;;;;;;24.63;30.72;99651.75;4490480;31;33424;-64
2023/05/02 10:55:15;;;;;;;6.47;3.00;;;;;;;24.46;30.70;99652.34;4488734;31;33527;-65
2023/05/02 10:57:58;;;;;;;11.55;3.12;;;;;;;24.37;30.71;99647.03;4489296;31;33676;-66
2023/05/02 11:00:28;;;;;;;5.12;2.20;;;;;;;24.97;29.99;99649.03;4484991;31;34084;-64
2023/05/02 11:02:56;;;;;;;5.47;2.80;;;;;;;25.09;30.41;99641.88;4485770;31;33355;-66
2023/05/02 11:05:25;;;;;;;8.55;2.55;;;;;;;25.53;29.86;99648.59;4487480;31;33536;-65
2023/05/02 11:08:15;;;;;;;9.52;2.83;;;;;;;25.60;29.82;99640.34;4487243;31;34476;-65
2023/05/02 11:10:46;;;;;;;6.60;2.62;;;;;;;25.24;30.07;99647.16;4484595;31;35667;-65
2023/05/02 11:13:14;;;;;;;6.93;2.97;;;;;;;24.48;31.02;99633.84;4493243;31;34757;-63
2023/05/02 11:15:41;;;;;;;6.00;2.62;;;;;;;24.71;30.24;99627.97;4497018;31;33248;-66
2023/05/02 11:18:11;;;;;;;3.90;2.62;;;;;;;25.20;30.56;99623.97;4494361;31;33406;-64
2023/05/02 11:20:41;;;;;;;6.93;2.62;;;;;;;25.59;30.08;99625.81;4486814;31;34411;-65
2023/05/02 11:23:14;;;;;;;7.97;2.37;;;;;;;25.30;30.36;99629.88;4488465;31;34862;-64
2023/05/02 11:25:46;;;;;;;6.28;3.00;;;;;;;25.43;30.06;99627.13;4492578;31;34733;-64
2023/05/02 11:28:33;;;;;;;7.78;2.87;;;;;;;25.46;29.81;99618.47;4494332;31;33720;-67
2023/05/02 11:31:01;;;;;;;5.90;2.92;;;;;;;25.61;30.09;99626.41;4486938;31;33966;-65
2023/05/02 11:33:29;;;;;;;4.75;2.75;;;;;;;25.70;29.98;99613.34;4492262;31;34204;-65
2023/05/02 11:35:57;;;;;;;8.00;3.25;;;;;;;25.37;30.11;99613.44;4498587;31;34860;-65
2023/05/02 11:38:26;;;;;;;4.85;2.95;;;;;;;25.68;30.47;99613.56;4489025;31;33948;-65
2023/05/02 11:40:56;;;;;;;3.65;2.03;;;;;;;25.26;30.93;99612.16;4487555;31;34198;-66
2023/05/02 11:43:25;;;;;;;4.90;2.25;;;;;;;25.89;28.98;99617.94;4494072;31;33035;-66
2023/05/02 11:45:58;;;;;;;6.10;2.35;;;;;;;25.23;30.49;99613.47;4495917;31;34678;-66
2023/05/02 11:48:26;;;;;;;6.00;2.42;;;;;;;25.17;30.34;99605.22;4483263;31;33028;-65